createdAt,value
2019-06-26T00:00:26.337Z,5.40
2019-06-26T00:01:26.319Z,5.40
2019-06-26T00:02:26.295Z,5.50
2019-06-26T00:03:26.336Z,6.00
2019-06-26T00:04:26.294Z,5.70
2019-06-26T00:05:26.270Z,5.70
2019-06-26T00:06:26.256Z,5.50
2019-06-26T00:07:26.253Z,6.50
2019-06-26T00:08:26.251Z,5.80
2019-06-26T00:09:26.250Z,5.60
2019-06-26T00:10:26.218Z,6.10
2019-06-26T00:11:26.204Z,6.20
2019-06-26T00:12:26.200Z,5.70
2019-06-26T00:13:27.044Z,5.60
2019-06-26T00:14:26.186Z,5.70
2019-06-26T00:15:26.166Z,6.60
2019-06-26T00:16:26.186Z,6.00
2019-06-26T00:17:26.138Z,6.40
2019-06-26T00:18:26.143Z,6.10
2019-06-26T00:19:26.109Z,5.90
2019-06-26T00:20:26.108Z,6.50
2019-06-26T00:21:26.108Z,6.40
2019-06-26T00:22:26.111Z,6.20
2019-06-26T00:23:26.089Z,6.60
2019-06-26T00:24:26.065Z,6.70
2019-06-26T00:25:26.047Z,6.30
2019-06-26T00:26:26.088Z,6.70
2019-06-26T00:27:26.041Z,6.70
2019-06-26T00:28:26.032Z,6.90
2019-06-26T00:29:26.019Z,6.70
2019-06-26T00:30:25.998Z,6.60
2019-06-26T00:31:25.989Z,6.70
2019-06-26T00:32:26.000Z,7.00
2019-06-26T00:33:25.980Z,6.60
2019-06-26T00:34:25.971Z,6.90
2019-06-26T00:35:25.950Z,6.60
2019-06-26T00:36:25.949Z,6.80
2019-06-26T00:37:25.963Z,7.30
2019-06-26T00:38:25.917Z,7.60
2019-06-26T00:39:25.909Z,6.80
2019-06-26T00:40:25.892Z,6.70
2019-06-26T00:41:25.893Z,7.40
2019-06-26T00:42:25.868Z,7.00
2019-06-26T00:43:38.503Z,7.10
2019-06-26T00:44:26.911Z,7.30
2019-06-26T00:45:25.842Z,7.20
2019-06-26T00:46:25.837Z,6.80
2019-06-26T00:47:25.845Z,7.50
2019-06-26T00:48:25.813Z,7.40
2019-06-26T00:49:25.807Z,7.10
2019-06-26T00:50:25.793Z,7.00
2019-06-26T00:51:25.778Z,7.50
2019-06-26T00:52:25.758Z,7.20
2019-06-26T00:53:25.762Z,7.20
2019-06-26T00:54:25.762Z,7.30
2019-06-26T00:55:25.730Z,7.60
2019-06-26T00:56:25.714Z,7.00
2019-06-26T00:57:25.719Z,7.30
2019-06-26T00:58:25.702Z,7.30
2019-06-26T00:59:25.738Z,7.50
2019-06-26T01:00:25.694Z,7.60
2019-06-26T01:01:25.663Z,7.40
2019-06-26T01:02:25.661Z,7.10
2019-06-26T01:03:25.652Z,7.80
2019-06-26T01:04:25.632Z,7.30
2019-06-26T01:05:25.641Z,7.10
2019-06-26T01:06:25.619Z,7.40
2019-06-26T01:07:25.592Z,7.80
2019-06-26T01:08:25.602Z,7.60
2019-06-26T01:09:25.591Z,7.30
2019-06-26T01:10:25.573Z,8.10
2019-06-26T01:11:25.573Z,6.70
2019-06-26T01:12:25.556Z,7.50
2019-06-26T01:13:25.540Z,7.90
2019-06-26T01:14:25.532Z,7.70
2019-06-26T01:15:25.510Z,8.10
2019-06-26T01:16:25.512Z,7.60
2019-06-26T01:17:25.504Z,7.80
2019-06-26T01:18:25.485Z,7.90
2019-06-26T01:19:25.486Z,7.80
2019-06-26T01:20:25.462Z,7.90
2019-06-26T01:21:25.483Z,7.10
2019-06-26T01:22:25.446Z,7.60
2019-06-26T01:23:25.464Z,8.00
2019-06-26T01:24:25.423Z,7.80
2019-06-26T01:25:25.413Z,7.90
2019-06-26T01:26:25.417Z,7.40
2019-06-26T01:27:25.396Z,7.30
2019-06-26T01:28:25.371Z,8.10
2019-06-26T01:29:25.370Z,8.00
2019-06-26T01:30:25.354Z,7.70
2019-06-26T01:31:25.385Z,7.70
2019-06-26T01:32:25.335Z,7.20
2019-06-26T01:33:25.326Z,7.40
2019-06-26T01:34:25.373Z,7.90
2019-06-26T01:35:25.305Z,7.80
2019-06-26T01:36:25.296Z,7.40
2019-06-26T01:37:25.293Z,7.60
2019-06-26T01:38:25.304Z,7.90
2019-06-26T01:39:25.269Z,7.50
2019-06-26T01:40:25.243Z,7.90
2019-06-26T01:41:25.245Z,7.90
2019-06-26T01:42:25.223Z,7.80
2019-06-26T01:43:25.225Z,8.00
2019-06-26T01:44:25.237Z,7.80
2019-06-26T01:45:25.248Z,7.90
2019-06-26T01:46:25.185Z,8.00
2019-06-26T01:47:25.172Z,8.20
2019-06-26T01:48:25.186Z,8.00
2019-06-26T01:49:25.158Z,8.10
2019-06-26T01:50:25.137Z,8.10
2019-06-26T01:51:25.131Z,7.70
2019-06-26T01:52:25.113Z,7.80
2019-06-26T01:53:25.135Z,7.70
2019-06-26T01:54:25.111Z,8.00
2019-06-26T01:55:25.096Z,8.20
2019-06-26T01:56:25.090Z,8.20
2019-06-26T01:57:25.073Z,8.10
2019-06-26T01:58:25.059Z,7.70
2019-06-26T01:59:25.067Z,8.70
2019-06-26T02:00:25.070Z,8.00
2019-06-26T02:01:25.025Z,8.40
2019-06-26T02:02:25.017Z,8.50
2019-06-26T02:03:25.006Z,8.00
2019-06-26T02:04:25.037Z,8.30
2019-06-26T02:05:24.989Z,9.10
2019-06-26T02:06:24.967Z,8.60
2019-06-26T02:07:24.970Z,8.30
2019-06-26T02:08:24.949Z,8.10
2019-06-26T02:09:24.969Z,7.80
2019-06-26T02:10:24.936Z,8.60
2019-06-26T02:11:24.927Z,8.60
2019-06-26T02:12:24.922Z,8.90
2019-06-26T02:13:24.902Z,8.30
2019-06-26T02:14:30.950Z,8.70
2019-06-26T02:15:25.876Z,8.70
2019-06-26T02:16:24.887Z,8.50
2019-06-26T02:17:24.856Z,8.30
2019-06-26T02:18:24.849Z,8.50
2019-06-26T02:19:24.835Z,8.60
2019-06-26T02:20:24.826Z,8.00
2019-06-26T02:21:24.838Z,8.70
2019-06-26T02:22:24.834Z,8.90
2019-06-26T02:23:24.786Z,8.70
2019-06-26T02:24:24.793Z,8.70
2019-06-26T02:25:24.806Z,9.00
2019-06-26T02:26:24.786Z,9.50
2019-06-26T02:27:24.746Z,8.70
2019-06-26T02:28:24.739Z,8.60
2019-06-26T02:29:24.727Z,8.60
2019-06-26T02:30:24.731Z,8.60
2019-06-26T02:31:24.712Z,8.50
2019-06-26T02:32:24.713Z,8.90
2019-06-26T02:33:24.736Z,8.30
2019-06-26T02:34:24.683Z,8.90
2019-06-26T02:35:24.656Z,8.40
2019-06-26T02:36:24.668Z,8.80
2019-06-26T02:37:24.658Z,9.80
2019-06-26T02:38:24.650Z,8.80
2019-06-26T02:39:24.629Z,8.50
2019-06-26T02:40:24.605Z,8.90
2019-06-26T02:41:24.610Z,9.10
2019-06-26T02:42:24.599Z,8.80
2019-06-26T02:43:24.590Z,8.50
2019-06-26T02:44:24.581Z,9.40
2019-06-26T02:45:24.550Z,9.60
2019-06-26T02:46:24.558Z,8.70
2019-06-26T02:47:24.573Z,9.40
2019-06-26T02:48:24.566Z,9.20
2019-06-26T02:49:24.523Z,9.60
2019-06-26T02:50:24.506Z,9.10
2019-06-26T02:51:24.497Z,10.20
2019-06-26T02:52:24.491Z,9.50
2019-06-26T02:53:24.480Z,9.40
2019-06-26T02:54:24.490Z,9.90
2019-06-26T02:55:24.447Z,9.70
2019-06-26T02:56:24.439Z,9.50
2019-06-26T02:57:24.423Z,9.90
2019-06-26T02:58:24.419Z,9.90
2019-06-26T02:59:24.417Z,10.10
2019-06-26T03:00:24.397Z,10.20
2019-06-26T03:01:24.412Z,10.90
2019-06-26T03:02:24.398Z,11.00
2019-06-26T03:03:24.362Z,9.90
2019-06-26T03:04:24.385Z,9.90
2019-06-26T03:05:24.342Z,10.10
2019-06-26T03:06:24.341Z,9.40
2019-06-26T03:07:24.354Z,10.80
2019-06-26T03:08:24.339Z,10.80
2019-06-26T03:09:24.302Z,10.00
2019-06-26T03:10:24.303Z,10.10
2019-06-26T03:11:24.290Z,10.80
2019-06-26T03:12:24.260Z,10.40
2019-06-26T03:13:24.259Z,11.10
2019-06-26T03:14:24.268Z,10.00
2019-06-26T03:15:24.239Z,9.80
2019-06-26T03:16:24.248Z,9.70
2019-06-26T03:17:24.212Z,9.30
2019-06-26T03:18:24.212Z,10.30
2019-06-26T03:19:24.189Z,10.00
2019-06-26T03:20:24.199Z,10.40
2019-06-26T03:21:24.177Z,10.90
2019-06-26T03:22:24.163Z,10.90
2019-06-26T03:23:24.163Z,9.70
2019-06-26T03:24:24.139Z,10.40
2019-06-26T03:25:24.141Z,10.50
2019-06-26T03:26:24.141Z,9.90
2019-06-26T03:27:24.100Z,10.50
2019-06-26T03:28:24.111Z,10.40
2019-06-26T03:29:24.084Z,10.00
2019-06-26T03:30:24.242Z,10.40
2019-06-26T03:31:24.068Z,9.50
2019-06-26T03:32:24.058Z,9.60
2019-06-26T03:33:24.056Z,10.30
2019-06-26T03:34:24.041Z,9.80
2019-06-26T03:35:24.033Z,10.30
2019-06-26T03:36:24.040Z,10.30
2019-06-26T03:37:24.002Z,10.00
2019-06-26T03:38:24.006Z,10.50
2019-06-26T03:39:23.979Z,10.90
2019-06-26T03:40:23.966Z,10.70
2019-06-26T03:41:24.020Z,10.70
2019-06-26T03:42:23.961Z,11.60
2019-06-26T03:43:23.952Z,10.10
2019-06-26T03:44:23.929Z,10.70
2019-06-26T03:45:26.298Z,10.50
2019-06-26T03:46:23.935Z,11.20
2019-06-26T03:47:23.912Z,10.60
2019-06-26T03:48:23.878Z,10.50
2019-06-26T03:49:23.876Z,10.80
2019-06-26T03:50:23.860Z,10.90
2019-06-26T03:51:23.859Z,11.20
2019-06-26T03:52:23.865Z,11.00
2019-06-26T03:53:23.833Z,11.30
2019-06-26T03:54:23.813Z,11.30
2019-06-26T03:55:23.804Z,10.90
2019-06-26T03:56:23.804Z,11.20
2019-06-26T03:57:23.790Z,10.90
2019-06-26T03:58:23.792Z,10.50
2019-06-26T03:59:23.786Z,10.90
2019-06-26T04:00:23.784Z,10.10
2019-06-26T04:01:23.745Z,10.40
2019-06-26T04:02:23.735Z,10.30
2019-06-26T04:03:23.771Z,10.90
2019-06-26T04:04:23.724Z,11.00
2019-06-26T04:05:25.154Z,10.80
2019-06-26T04:06:23.693Z,10.70
2019-06-26T04:07:23.683Z,10.80
2019-06-26T04:08:23.664Z,11.00
2019-06-26T04:09:23.680Z,11.20
2019-06-26T04:10:23.658Z,12.10
2019-06-26T04:11:23.634Z,12.80
2019-06-26T04:12:23.636Z,14.50
2019-06-26T04:13:23.616Z,15.10
2019-06-26T04:14:23.612Z,14.90
2019-06-26T04:15:23.625Z,15.00
2019-06-26T04:16:23.573Z,14.80
2019-06-26T04:17:23.571Z,15.10
2019-06-26T04:18:23.557Z,13.10
2019-06-26T04:19:23.554Z,14.80
2019-06-26T04:20:23.548Z,14.10
2019-06-26T04:21:23.545Z,15.20
2019-06-26T04:22:23.524Z,13.60
2019-06-26T04:23:23.580Z,15.10
2019-06-26T04:24:23.503Z,15.20
2019-06-26T04:25:23.505Z,15.40
2019-06-26T04:26:23.498Z,14.90
2019-06-26T04:27:23.464Z,15.10
2019-06-26T04:28:24.546Z,15.30
2019-06-26T04:29:23.432Z,15.60
2019-06-26T04:30:23.457Z,17.20
2019-06-26T04:31:23.435Z,16.20
2019-06-26T04:32:23.436Z,15.60
2019-06-26T04:33:23.396Z,16.10
2019-06-26T04:34:23.385Z,15.30
2019-06-26T04:35:23.379Z,16.50
2019-06-26T04:36:23.362Z,15.50
2019-06-26T04:37:23.373Z,14.70
2019-06-26T04:38:23.345Z,14.80
2019-06-26T04:39:23.347Z,16.80
2019-06-26T04:40:23.328Z,16.30
2019-06-26T04:41:23.306Z,18.20
2019-06-26T04:42:23.323Z,18.40
2019-06-26T04:43:24.115Z,18.30
2019-06-26T04:44:23.283Z,19.00
2019-06-26T04:45:23.274Z,18.80
2019-06-26T04:46:23.263Z,18.30
2019-06-26T04:47:23.252Z,18.50
2019-06-26T04:48:23.259Z,18.40
2019-06-26T04:49:23.253Z,20.50
2019-06-26T04:50:23.206Z,20.50
2019-06-26T04:51:23.216Z,20.20
2019-06-26T04:52:23.206Z,20.40
2019-06-26T04:53:23.177Z,21.40
2019-06-26T04:54:23.191Z,22.20
2019-06-26T04:55:24.135Z,22.20
2019-06-26T04:56:23.481Z,21.10
2019-06-26T04:57:23.854Z,22.40
2019-06-26T04:58:23.254Z,22.10
2019-06-26T04:59:24.954Z,22.30
2019-06-26T05:00:27.005Z,23.40
2019-06-26T05:01:25.992Z,24.90
2019-06-26T05:02:24.102Z,24.60
2019-06-26T05:03:23.090Z,24.80
2019-06-26T05:04:23.081Z,25.00
2019-06-26T05:05:38.202Z,27.40
2019-06-26T05:06:24.075Z,26.00
2019-06-26T05:07:23.028Z,26.20
2019-06-26T05:08:23.030Z,26.30
2019-06-26T05:09:23.027Z,27.00
2019-06-26T05:10:23.032Z,31.10
2019-06-26T05:11:23.011Z,30.50
2019-06-26T05:12:23.012Z,27.60
2019-06-26T05:13:22.988Z,27.80
2019-06-26T05:14:23.407Z,28.50
2019-06-26T05:15:22.960Z,28.80
2019-06-26T05:16:22.976Z,31.90
2019-06-26T05:17:22.944Z,32.80
2019-06-26T05:18:22.923Z,33.30
2019-06-26T05:19:22.897Z,33.00
2019-06-26T05:20:22.885Z,31.90
2019-06-26T05:21:22.922Z,32.30
2019-06-26T05:22:22.914Z,33.60
2019-06-26T05:23:22.856Z,31.40
2019-06-26T05:24:22.898Z,32.50
2019-06-26T05:25:22.837Z,35.20
2019-06-26T05:26:22.847Z,34.10
2019-06-26T05:27:22.834Z,32.60
2019-06-26T05:28:22.809Z,32.70
2019-06-26T05:29:22.808Z,33.60
2019-06-26T05:30:22.786Z,33.20
2019-06-26T05:31:22.795Z,31.90
2019-06-26T05:32:22.790Z,36.60
2019-06-26T05:33:22.750Z,36.20
2019-06-26T05:34:22.790Z,39.40
2019-06-26T05:35:22.727Z,38.10
2019-06-26T05:36:22.730Z,39.50
2019-06-26T05:37:22.709Z,38.30
2019-06-26T05:38:22.722Z,38.80
2019-06-26T05:39:22.688Z,37.50
2019-06-26T05:40:22.697Z,38.40
2019-06-26T05:41:22.660Z,39.00
2019-06-26T05:42:22.656Z,43.10
2019-06-26T05:43:22.667Z,42.40
2019-06-26T05:44:22.629Z,44.10
2019-06-26T05:45:22.628Z,44.30
2019-06-26T05:46:30.871Z,44.70
2019-06-26T05:47:23.598Z,44.00
2019-06-26T05:48:22.618Z,44.70
2019-06-26T05:49:22.608Z,46.40
2019-06-26T05:50:22.568Z,45.00
2019-06-26T05:51:22.565Z,44.00
2019-06-26T05:52:22.555Z,44.00
2019-06-26T05:53:22.548Z,44.30
2019-06-26T05:54:22.541Z,44.20
2019-06-26T05:55:22.536Z,40.90
2019-06-26T05:56:22.531Z,39.70
2019-06-26T05:57:22.504Z,41.90
2019-06-26T05:58:22.480Z,42.30
2019-06-26T05:59:22.470Z,43.40
2019-06-26T06:00:22.460Z,41.70
2019-06-26T06:01:22.449Z,42.30
2019-06-26T06:02:22.459Z,45.20
2019-06-26T06:03:22.431Z,44.30
2019-06-26T06:04:22.570Z,46.90
2019-06-26T06:05:22.452Z,45.50
2019-06-26T06:06:22.484Z,45.60
2019-06-26T06:07:22.863Z,45.80
2019-06-26T06:08:23.362Z,46.30
2019-06-26T06:09:23.466Z,45.80
2019-06-26T06:10:22.767Z,45.00
2019-06-26T06:11:22.359Z,47.30
2019-06-26T06:12:22.377Z,47.90
2019-06-26T06:13:22.330Z,45.40
2019-06-26T06:14:22.312Z,47.20
2019-06-26T06:15:22.316Z,46.80
2019-06-26T06:16:22.316Z,46.20
2019-06-26T06:17:22.941Z,45.50
2019-06-26T06:18:23.532Z,44.70
2019-06-26T06:19:22.484Z,46.40
2019-06-26T06:20:22.283Z,45.20
2019-06-26T06:21:22.247Z,44.90
2019-06-26T06:22:22.709Z,44.20
2019-06-26T06:23:22.229Z,44.00
2019-06-26T06:24:22.319Z,43.40
2019-06-26T06:25:22.429Z,45.20
2019-06-26T06:26:22.438Z,43.70
2019-06-26T06:27:22.518Z,44.30
2019-06-26T06:28:22.231Z,43.80
2019-06-26T06:29:22.181Z,42.90
2019-06-26T06:30:22.173Z,41.50
2019-06-26T06:31:23.075Z,42.30
2019-06-26T06:32:22.120Z,40.40
2019-06-26T06:33:22.792Z,41.70
2019-06-26T06:34:22.133Z,43.10
2019-06-26T06:35:22.462Z,42.40
2019-06-26T06:36:22.184Z,39.60
2019-06-26T06:37:22.403Z,40.60
2019-06-26T06:38:22.077Z,39.40
2019-06-26T06:39:22.062Z,40.00
2019-06-26T06:40:22.054Z,37.40
2019-06-26T06:41:22.037Z,38.30
2019-06-26T06:42:22.014Z,39.60
2019-06-26T06:43:22.023Z,37.80
2019-06-26T06:44:22.024Z,38.60
2019-06-26T06:45:21.984Z,40.10
2019-06-26T06:46:22.007Z,39.20
2019-06-26T06:47:21.962Z,39.00
2019-06-26T06:48:21.953Z,39.10
2019-06-26T06:49:21.961Z,40.80
2019-06-26T06:50:21.929Z,41.70
2019-06-26T06:51:21.962Z,40.50
2019-06-26T06:52:21.913Z,40.30
2019-06-26T06:53:21.903Z,38.30
2019-06-26T06:54:21.935Z,38.80
2019-06-26T06:55:21.882Z,38.00
2019-06-26T06:56:21.885Z,38.30
2019-06-26T06:57:21.863Z,36.60
2019-06-26T06:58:21.850Z,37.70
2019-06-26T06:59:21.873Z,35.70
2019-06-26T07:00:21.831Z,37.70
2019-06-26T07:01:21.835Z,38.00
2019-06-26T07:02:21.812Z,35.70
2019-06-26T07:03:21.793Z,36.10
2019-06-26T07:04:21.793Z,35.30
2019-06-26T07:05:21.774Z,37.50
2019-06-26T07:06:21.763Z,35.40
2019-06-26T07:07:21.765Z,36.00
2019-06-26T07:08:21.742Z,34.70
2019-06-26T07:09:21.727Z,36.30
2019-06-26T07:10:21.724Z,34.80
2019-06-26T07:11:21.717Z,35.40
2019-06-26T07:12:21.765Z,32.00
2019-06-26T07:13:21.685Z,34.10
2019-06-26T07:14:21.687Z,35.40
2019-06-26T07:15:21.687Z,35.10
2019-06-26T07:16:21.661Z,35.10
2019-06-26T07:17:21.686Z,34.40
2019-06-26T07:18:21.636Z,33.20
2019-06-26T07:19:21.657Z,32.50
2019-06-26T07:20:21.618Z,31.50
2019-06-26T07:21:21.604Z,31.60
2019-06-26T07:22:21.594Z,31.50
2019-06-26T07:23:21.584Z,33.20
2019-06-26T07:24:21.575Z,31.80
2019-06-26T07:25:21.598Z,32.20
2019-06-26T07:26:21.556Z,32.60
2019-06-26T07:27:21.544Z,32.40
2019-06-26T07:28:21.621Z,34.00
2019-06-26T07:29:21.525Z,33.10
2019-06-26T07:30:21.568Z,31.90
2019-06-26T07:31:21.498Z,32.30
2019-06-26T07:32:21.502Z,32.50
2019-06-26T07:33:21.507Z,31.60
2019-06-26T07:34:21.521Z,29.80
2019-06-26T07:35:21.465Z,29.80
2019-06-26T07:36:21.546Z,31.40
2019-06-26T07:37:21.444Z,30.30
2019-06-26T07:38:21.428Z,32.00
2019-06-26T07:39:21.498Z,31.50
2019-06-26T07:40:21.436Z,31.80
2019-06-26T07:41:21.418Z,32.10
2019-06-26T07:42:21.397Z,30.30
2019-06-26T07:43:21.404Z,28.60
2019-06-26T07:44:21.366Z,28.20
2019-06-26T07:45:24.040Z,27.30
2019-06-26T07:46:21.361Z,28.10
2019-06-26T07:47:23.495Z,28.40
2019-06-26T07:48:22.326Z,28.00
2019-06-26T07:49:21.309Z,26.40
2019-06-26T07:50:21.297Z,25.90
2019-06-26T07:51:21.331Z,24.80
2019-06-26T07:52:21.347Z,25.90
2019-06-26T07:53:22.348Z,25.00
2019-06-26T07:54:21.270Z,27.20
2019-06-26T07:55:21.258Z,24.40
2019-06-26T07:56:21.249Z,26.20
2019-06-26T07:57:21.254Z,25.00
2019-06-26T07:58:21.216Z,24.90
2019-06-26T07:59:21.200Z,24.10
2019-06-26T08:00:21.246Z,21.80
2019-06-26T08:01:21.181Z,20.00
2019-06-26T08:02:21.174Z,24.20
2019-06-26T08:03:21.200Z,24.30
2019-06-26T08:04:21.169Z,23.70
2019-06-26T08:05:21.519Z,24.50
2019-06-26T08:06:21.542Z,25.10
2019-06-26T08:07:21.645Z,25.20
2019-06-26T08:08:21.682Z,24.20
2019-06-26T08:09:21.096Z,22.70
2019-06-26T08:10:21.088Z,21.40
2019-06-26T08:11:21.078Z,22.40
2019-06-26T08:12:21.070Z,21.50
2019-06-26T08:13:21.153Z,21.00
2019-06-26T08:14:21.280Z,20.40
2019-06-26T08:15:21.052Z,20.40
2019-06-26T08:16:21.032Z,21.00
2019-06-26T08:17:21.022Z,22.00
2019-06-26T08:18:21.015Z,20.20
2019-06-26T08:19:20.991Z,22.30
2019-06-26T08:20:21.031Z,18.60
2019-06-26T08:21:20.975Z,19.50
2019-06-26T08:22:20.980Z,16.70
2019-06-26T08:23:20.949Z,21.20
2019-06-26T08:24:20.944Z,17.10
2019-06-26T08:25:20.954Z,20.40
2019-06-26T08:26:20.923Z,20.60
2019-06-26T08:27:20.927Z,21.40
2019-06-26T08:28:20.941Z,20.50
2019-06-26T08:29:20.955Z,19.00
2019-06-26T08:30:20.919Z,18.50
2019-06-26T08:31:21.046Z,20.80
2019-06-26T08:32:20.938Z,19.50
2019-06-26T08:33:20.842Z,19.60
2019-06-26T08:34:20.899Z,17.10
2019-06-26T08:35:20.893Z,15.40
2019-06-26T08:36:20.844Z,14.90
2019-06-26T08:37:20.865Z,15.50
2019-06-26T08:38:20.805Z,14.60
2019-06-26T08:39:20.799Z,15.10
2019-06-26T08:40:20.806Z,16.90
2019-06-26T08:41:20.778Z,16.00
2019-06-26T08:42:20.766Z,14.50
2019-06-26T08:43:20.763Z,13.80
2019-06-26T08:44:20.734Z,12.80
2019-06-26T08:45:20.732Z,12.00
2019-06-26T08:46:20.713Z,11.40
2019-06-26T08:47:20.720Z,12.70
2019-06-26T08:48:38.282Z,14.10
2019-06-26T08:49:26.012Z,14.00
2019-06-26T08:50:20.681Z,12.90
2019-06-26T08:51:20.663Z,14.30
2019-06-26T08:52:20.667Z,12.70
2019-06-26T08:53:20.662Z,12.30
2019-06-26T08:54:20.656Z,12.20
2019-06-26T08:55:20.624Z,12.20
2019-06-26T08:56:20.639Z,12.70
2019-06-26T08:57:20.627Z,11.90
2019-06-26T08:58:20.599Z,12.10
2019-06-26T08:59:20.601Z,12.10
2019-06-26T09:00:20.608Z,11.40
2019-06-26T09:01:20.582Z,11.20
2019-06-26T09:02:20.576Z,11.50
2019-06-26T09:03:20.544Z,10.90
2019-06-26T09:04:20.546Z,11.30
2019-06-26T09:05:20.569Z,11.20
2019-06-26T09:06:20.526Z,12.10
2019-06-26T09:07:20.514Z,12.60
2019-06-26T09:08:20.552Z,11.90
2019-06-26T09:09:20.511Z,10.90
2019-06-26T09:10:20.493Z,9.90
2019-06-26T09:11:20.497Z,11.50
2019-06-26T09:12:20.466Z,10.40
2019-06-26T09:13:20.459Z,9.50
2019-06-26T09:14:20.460Z,9.20
2019-06-26T09:15:20.439Z,8.80
2019-06-26T09:16:21.455Z,9.10
2019-06-26T09:17:20.424Z,8.80
2019-06-26T09:18:34.362Z,9.20
2019-06-26T09:19:21.421Z,9.50
2019-06-26T09:20:20.383Z,9.90
2019-06-26T09:21:20.390Z,9.10
2019-06-26T09:22:20.389Z,8.60
2019-06-26T09:23:20.394Z,8.70
2019-06-26T09:24:20.348Z,9.20
2019-06-26T09:25:22.460Z,10.10
2019-06-26T09:26:20.354Z,9.50
2019-06-26T09:27:20.319Z,9.60
2019-06-26T09:28:20.326Z,8.90
2019-06-26T09:29:23.688Z,9.50
2019-06-26T09:30:20.320Z,8.30
2019-06-26T09:31:20.317Z,8.90
2019-06-26T09:32:20.309Z,8.60
2019-06-26T09:33:20.279Z,8.80
2019-06-26T09:34:20.259Z,8.70
2019-06-26T09:35:20.250Z,9.10
2019-06-26T09:36:21.084Z,9.30
2019-06-26T09:37:20.249Z,8.90
2019-06-26T09:38:20.247Z,8.90
2019-06-26T09:39:20.245Z,8.60
2019-06-26T09:40:20.243Z,9.10
2019-06-26T09:41:20.217Z,10.60
2019-06-26T09:42:20.191Z,9.50
2019-06-26T09:43:20.224Z,9.80
2019-06-26T09:44:20.186Z,8.80
2019-06-26T09:45:20.176Z,9.20
2019-06-26T09:46:21.253Z,8.40
2019-06-26T09:47:20.150Z,8.20
2019-06-26T09:48:20.155Z,8.80
2019-06-26T09:49:20.133Z,8.30
2019-06-26T09:50:20.273Z,8.20
2019-06-26T09:51:20.135Z,8.50
2019-06-26T09:52:20.106Z,8.50
2019-06-26T09:53:20.142Z,9.40
2019-06-26T09:54:20.088Z,11.00
2019-06-26T09:55:20.081Z,10.40
2019-06-26T09:56:20.080Z,8.70
2019-06-26T09:57:20.059Z,9.30
2019-06-26T09:58:20.047Z,8.50
2019-06-26T09:59:20.038Z,10.40
2019-06-26T10:00:20.033Z,9.70
2019-06-26T10:01:20.041Z,9.50
2019-06-26T10:02:20.012Z,9.70
2019-06-26T10:03:20.021Z,10.00
2019-06-26T10:04:20.002Z,10.50
2019-06-26T10:05:20.196Z,10.30
2019-06-26T10:06:20.022Z,9.60
2019-06-26T10:07:20.047Z,8.60
2019-06-26T10:08:19.972Z,8.80
2019-06-26T10:09:20.047Z,8.40
2019-06-26T10:10:19.949Z,9.10
2019-06-26T10:11:21.379Z,10.00
2019-06-26T10:12:20.317Z,11.30
2019-06-26T10:13:19.934Z,10.30
2019-06-26T10:14:19.932Z,11.90
2019-06-26T10:15:19.931Z,12.60
2019-06-26T10:16:19.898Z,10.70
2019-06-26T10:17:19.873Z,13.20
2019-06-26T10:18:19.899Z,10.80
2019-06-26T10:19:20.511Z,12.80
2019-06-26T10:20:20.020Z,12.70
2019-06-26T10:21:23.509Z,12.90
2019-06-26T10:22:19.820Z,11.10
2019-06-26T10:23:19.822Z,12.20
2019-06-26T10:24:19.819Z,11.50
2019-06-26T10:25:19.832Z,12.30
2019-06-26T10:26:19.799Z,12.50
2019-06-26T10:27:19.791Z,12.40
2019-06-26T10:28:20.409Z,10.80
2019-06-26T10:29:20.186Z,10.30
2019-06-26T10:30:19.913Z,9.90
2019-06-26T10:31:20.085Z,10.40
2019-06-26T10:32:20.195Z,10.20
2019-06-26T10:33:20.197Z,10.70
2019-06-26T10:34:20.579Z,10.60
2019-06-26T10:35:19.947Z,10.00
2019-06-26T10:36:23.516Z,9.70
2019-06-26T10:37:19.935Z,9.80
2019-06-26T10:38:19.795Z,10.00
2019-06-26T10:39:20.477Z,10.10
2019-06-26T10:40:20.989Z,12.20
2019-06-26T10:41:20.422Z,12.00
2019-06-26T10:42:19.908Z,13.60
2019-06-26T10:43:19.800Z,13.00
2019-06-26T10:44:19.754Z,13.40
2019-06-26T10:45:19.920Z,13.60
2019-06-26T10:46:19.855Z,11.30
2019-06-26T10:47:19.994Z,12.60
2019-06-26T10:48:19.623Z,12.00
2019-06-26T10:49:26.804Z,11.00
2019-06-26T10:50:20.586Z,10.40
2019-06-26T10:51:19.582Z,10.10
2019-06-26T10:52:19.571Z,10.50
2019-06-26T10:53:19.581Z,10.30
2019-06-26T10:54:19.525Z,9.50
2019-06-26T10:55:19.544Z,10.90
2019-06-26T10:56:19.536Z,11.00
2019-06-26T10:57:19.495Z,9.90
2019-06-26T10:58:19.493Z,11.60
2019-06-26T10:59:19.500Z,12.30
2019-06-26T11:00:19.488Z,10.90
2019-06-26T11:01:19.526Z,11.30
2019-06-26T11:02:19.908Z,11.70
2019-06-26T11:03:19.997Z,11.90
2019-06-26T11:04:20.041Z,11.60
2019-06-26T11:05:19.795Z,10.80
2019-06-26T11:06:19.663Z,12.00
2019-06-26T11:07:19.680Z,11.90
2019-06-26T11:08:20.929Z,12.30
2019-06-26T11:09:19.396Z,10.80
2019-06-26T11:10:19.403Z,11.00
2019-06-26T11:11:19.365Z,13.00
2019-06-26T11:12:20.015Z,12.70
2019-06-26T11:13:19.376Z,11.90
2019-06-26T11:14:19.397Z,13.30
2019-06-26T11:15:19.988Z,9.60
2019-06-26T11:16:19.769Z,10.70
2019-06-26T11:17:19.598Z,10.50
2019-06-26T11:18:19.425Z,11.70
2019-06-26T11:19:19.829Z,10.40
2019-06-26T11:20:19.336Z,9.40
2019-06-26T11:21:20.087Z,9.20
2019-06-26T11:22:19.694Z,9.00
2019-06-26T11:23:19.595Z,9.00
2019-06-26T11:24:19.436Z,8.60
2019-06-26T11:25:19.470Z,8.50
2019-06-26T11:26:19.495Z,10.00
2019-06-26T11:27:19.402Z,10.80
2019-06-26T11:28:19.426Z,9.50
2019-06-26T11:29:19.250Z,9.10
2019-06-26T11:30:19.198Z,9.20
2019-06-26T11:31:19.203Z,9.50
2019-06-26T11:32:19.726Z,8.50
2019-06-26T11:33:19.760Z,9.10
2019-06-26T11:34:20.084Z,9.40
2019-06-26T11:35:19.226Z,9.50
2019-06-26T11:36:19.178Z,9.10
2019-06-26T11:37:22.656Z,9.10
2019-06-26T11:38:19.165Z,11.60
2019-06-26T11:39:19.124Z,10.70
2019-06-26T11:40:19.117Z,9.90
2019-06-26T11:41:19.126Z,11.80
2019-06-26T11:42:19.093Z,10.70
2019-06-26T11:43:19.074Z,10.90
2019-06-26T11:44:19.076Z,11.60
2019-06-26T11:45:19.075Z,11.30
2019-06-26T11:46:19.075Z,11.10
2019-06-26T11:47:19.065Z,12.60
2019-06-26T11:48:19.049Z,13.30
2019-06-26T11:49:19.054Z,14.00
2019-06-26T11:50:20.902Z,12.60
2019-06-26T11:51:19.466Z,15.70
2019-06-26T11:52:19.830Z,13.80
2019-06-26T11:53:19.355Z,14.00
2019-06-26T11:54:19.250Z,14.70
2019-06-26T11:55:19.936Z,15.40
2019-06-26T11:56:19.509Z,18.10
2019-06-26T11:57:19.916Z,16.30
2019-06-26T11:58:19.090Z,15.20
2019-06-26T11:59:20.181Z,20.20
2019-06-26T12:00:19.430Z,20.40
2019-06-26T12:01:19.524Z,21.60
2019-06-26T12:02:19.319Z,17.00
2019-06-26T12:03:19.254Z,19.10
2019-06-26T12:04:19.149Z,20.00
2019-06-26T12:05:19.133Z,20.90
2019-06-26T12:06:19.765Z,16.90
2019-06-26T12:07:19.024Z,18.30
2019-06-26T12:08:19.220Z,20.60
2019-06-26T12:09:18.965Z,18.00
2019-06-26T12:10:19.098Z,15.50
2019-06-26T12:11:19.095Z,16.40
2019-06-26T12:12:19.071Z,15.30
2019-06-26T12:13:18.979Z,12.50
2019-06-26T12:14:18.923Z,9.60
2019-06-26T12:15:18.864Z,10.80
2019-06-26T12:16:18.986Z,11.70
2019-06-26T12:17:18.899Z,11.80
2019-06-26T12:18:18.922Z,14.30
2019-06-26T12:19:22.492Z,13.60
2019-06-26T12:20:19.990Z,14.30
2019-06-26T12:21:18.993Z,16.00
2019-06-26T12:22:18.973Z,14.50
2019-06-26T12:23:18.873Z,12.40
2019-06-26T12:24:18.887Z,10.00
2019-06-26T12:25:18.841Z,10.30
2019-06-26T12:26:18.911Z,9.70
2019-06-26T12:27:18.916Z,10.40
2019-06-26T12:28:19.583Z,8.90
2019-06-26T12:29:19.191Z,9.50
2019-06-26T12:30:19.320Z,8.90
2019-06-26T12:31:18.847Z,9.70
2019-06-26T12:32:19.071Z,10.50
2019-06-26T12:33:19.228Z,8.90
2019-06-26T12:34:18.985Z,8.80
2019-06-26T12:35:19.766Z,7.10
2019-06-26T12:36:18.726Z,7.00
2019-06-26T12:37:18.696Z,7.30
2019-06-26T12:38:18.798Z,8.20
2019-06-26T12:39:20.087Z,9.10
2019-06-26T12:40:19.516Z,10.50
2019-06-26T12:41:19.184Z,10.10
2019-06-26T12:42:19.637Z,8.40
2019-06-26T12:43:19.253Z,13.60
2019-06-26T12:44:18.795Z,13.00
2019-06-26T12:45:20.118Z,11.20
2019-06-26T12:46:18.608Z,10.20
2019-06-26T12:47:20.180Z,10.00
2019-06-26T12:49:11.402Z,10.20
2019-06-26T12:50:11.481Z,10.00
2019-06-26T12:55:46.793Z,12.90
2019-06-26T12:56:44.657Z,13.10
2019-06-26T12:57:43.402Z,12.90
2019-06-26T12:58:43.213Z,12.20
2019-06-26T12:59:56.771Z,10.50
2019-06-26T13:00:44.268Z,11.00
2019-06-26T13:01:43.454Z,10.80
2019-06-26T13:02:43.375Z,9.90
2019-06-26T13:03:43.305Z,9.70
2019-06-26T13:04:44.878Z,10.40
2019-06-26T13:05:43.587Z,11.90
2019-06-26T13:06:43.179Z,12.80